Latest Weather Observations for Bulman

IDD60801

Issued at 12:01 pm CST Thursday 27 July 2017 (issued every 30 minutes, with the page automatically refreshed every 10 minutes)

About weather observations | Map of weather stations | Latest weather observations for NT | Other Formats
Station Details ID: 014627 Name: BULMAN Lat: -13.67 Lon: 134.34 Height: 103.4 m
Data from the previous 72 hours. | See also: Recent months at Bulman
Date/Time
CST
Temp
°C
App
Temp
°C
Dew
Point
°C
Rel
Hum
%
Delta-T
°C
Wind Press
QNH
hPa
Press
MSL
hPa
Rain since
9am
mm
Dir  Spd
km/h
Gust
km/h
Spd
kts
Gust
kts
27/11:30am 28.7 28.1 15.6 45 8.1 ENE 13 17 7 9 1016.6 1016.1 0.0
27/11:00am 28.5 28.5 17.1 50 7.2 NE 13 24 7 13 1016.9 1016.4 0.0
27/10:30am 27.6 28.2 17.7 54 6.3 ENE 11 20 6 11 1017.3 1016.8 0.0
27/10:00am 25.4 25.8 18.1 64 4.6 ESE 13 20 7 11 1017.5 1017.0 0.0
27/09:30am 23.7 24.7 18.6 73 3.2 ESE 11 15 6 8 1017.5 1017.0 0.0
27/09:00am 22.1 23.9 18.7 81 2.1 NE 7 11 4 6 1017.3 1016.8 0.0
27/08:30am 20.7 22.5 18.8 89 1.2 SE 7 11 4 6 1017.1 1016.6 0.0
27/08:00am 19.9 21.9 19.2 96 0.4 SSE 7 11 4 6 1016.7 1016.2 0.0
27/07:30am 19.8 21.9 19.3 97 0.3 SE 7 11 4 6 1016.2 1015.8 0.0
27/07:00am 19.5 21.6 19.0 97 0.3 SE 6 9 3 5 1016.0 1015.6 0.0
27/06:30am 19.5 21.6 19.0 97 0.3 SE 6 7 3 4 1015.6 1015.2 0.0
27/06:00am 19.9 22.2 19.4 97 0.3 NNE 6 7 3 4 1015.3 1014.9 0.0
27/05:30am 19.9 22.9 19.2 96 0.4 ESE 2 6 1 3 1015.1 1014.7 0.0
27/05:00am 20.1 22.3 19.3 95 0.5 SSW 6 7 3 4 1015.1 1014.7 0.0
27/04:30am 20.7 23.3 20.0 96 0.4 N 6 7 3 4 1015.0 1014.6 0.0
27/04:00am 20.0 22.3 19.5 97 0.3 S 6 9 3 5 1015.0 1014.6 0.0
27/03:30am 18.4 20.7 17.8 96 0.4 SSW 2 6 1 3 1014.9 1014.5 0.0
27/03:00am 17.8 19.1 17.0 95 0.5 SSW 6 7 3 4 1015.0 1014.6 0.0
27/02:30am 18.0 19.3 17.0 94 0.6 SW 6 7 3 4 1015.0 1014.6 0.0
27/02:00am 18.2 20.6 16.9 92 0.8 CALM 0 0 0 0 1015.3 1014.9 0.0
27/01:30am 18.5 20.8 16.8 90 1.0 CALM 0 0 0 0 1015.5 1015.1 0.0
27/01:00am 18.8 21.1 16.8 88 1.2 CALM 0 0 0 0 1015.7 1015.3 0.0
27/12:30am 19.5 21.9 17.1 86 1.5 CALM 0 0 0 0 1015.8 1015.4 0.0
27/12:00am 20.4 22.7 17.8 85 1.6 SE 2 6 1 3 1015.8 1015.4 0.0
 
Date/Time
CST
Temp
°C
App
Temp
°C
Dew
Point
°C
Rel
Hum
%
Delta-T
°C
Wind Press
QNH
hPa
Press
MSL
hPa
Rain since
9am
mm
Dir  Spd
km/h
Gust
km/h
Spd
kts
Gust
kts
26/11:30pm 20.2 21.8 17.0 82 2.0 SE 4 7 2 4 1015.8 1015.4 0.0
26/11:00pm 20.9 22.6 17.1 79 2.3 SE 4 6 2 3 1015.9 1015.5 0.0
26/10:30pm 21.4 22.6 16.8 75 2.8 SE 6 7 3 4 1016.1 1015.7 0.0
26/10:00pm 21.7 22.6 16.2 71 3.3 SE 6 6 3 3 1016.0 1015.6 0.0
26/09:30pm 22.5 23.7 15.8 66 4.0 SE 4 6 2 3 1015.9 1015.5 0.0
26/09:00pm 24.1 24.9 15.9 60 5.0 SE 6 7 3 4 1015.7 1015.3 0.0
26/08:30pm 25.3 25.6 15.9 56 5.7 SE 9 19 5 10 1015.4 1015.0 0.0
26/08:00pm 25.9 25.7 15.6 53 6.3 SE 11 17 6 9 1015.1 1014.7 0.0
26/07:30pm 26.4 25.9 14.8 49 7.0 SE 11 17 6 9 1014.9 1014.5 0.0
26/07:00pm 27.0 26.8 14.7 47 7.4 SE 9 13 5 7 1014.3 1013.9 0.0
26/06:30pm 28.0 27.0 14.6 44 8.1 SE 13 20 7 11 1014.1 1013.7 0.0
26/06:00pm 29.0 27.9 14.4 41 8.8 ESE 13 26 7 14 1013.6 1013.2 0.0
26/05:30pm 30.1 28.4 14.6 39 9.5 ESE 17 26 9 14 1013.4 1013.0 0.0
26/05:00pm 30.9 29.6 13.7 35 10.4 E 13 30 7 16 1013.0 1012.6 0.0
26/04:30pm 31.6 30.3 13.8 34 10.8 ESE 13 24 7 13 1012.9 1012.5 0.0
26/04:00pm 31.8 30.2 14.0 34 10.8 ESE 15 24 8 13 1012.8 1012.4 0.0
26/03:30pm 32.3 30.9 14.4 33 11.0 SE 15 22 8 12 1012.8 1012.4 0.0
26/03:00pm 32.7 31.0 14.8 34 11.1 E 17 26 9 14 1013.0 1012.6 0.0
26/02:30pm 32.2 30.9 14.8 35 10.7 E 15 26 8 14 1013.3 1012.9 0.0
26/02:00pm 30.6 29.0 13.8 35 10.2 SE 15 24 8 13 1013.8 1013.4 0.0
26/01:30pm 31.3 29.7 14.9 37 10.1 E 17 28 9 15 1014.3 1013.9 0.0
26/01:00pm 30.9 29.4 15.3 38 9.7 E 17 26 9 14 1014.8 1014.4 0.0
26/12:30pm 30.2 28.8 15.5 41 9.1 E 17 28 9 15 1015.2 1014.8 0.0
26/12:00pm 30.3 28.7 16.0 42 8.9 ENE 19 30 10 16 1015.4 1015.0 0.0
26/11:30am 29.0 27.2 15.5 44 8.3 ESE 19 33 10 18 1015.7 1015.3 0.0
26/11:00am 29.4 28.8 17.6 49 7.5 ENE 17 24 9 13 1016.0 1015.6 0.0
26/10:30am 28.8 29.2 19.1 55 6.3 E 15 24 8 13 1016.2 1015.8 0.0
26/10:00am 27.0 28.0 19.4 63 4.9 ESE 13 20 7 11 1016.4 1015.9 0.0
26/09:30am 25.9 27.1 19.8 69 4.0 ESE 13 20 7 11 1016.4 1015.9 0.0
26/09:00am 25.1 27.5 20.8 77 2.8 ESE 9 17 5 9 1016.1 1015.7 0.0
26/08:30am 23.4 25.5 20.2 82 2.1 ESE 9 13 5 7 1015.8 1015.4 0.0
26/08:00am 23.0 25.8 20.5 86 1.6 E 6 9 3 5 1015.5 1015.1 0.0
26/07:30am 22.1 26.1 20.6 91 1.0 CALM 0 0 0 0 1015.3 1014.9 0.0
26/07:00am 22.0 26.0 20.6 92 0.9 CALM 0 0 0 0 1015.1 1014.7 0.0
26/06:30am 21.6 25.5 20.4 93 0.8 CALM 0 6 0 3 1015.0 1014.6 0.0
26/06:00am 21.7 24.4 20.2 91 1.0 SE 6 7 3 4 1014.8 1014.4 0.0
26/05:30am 22.2 25.1 20.7 91 1.0 SE 6 9 3 5 1014.6 1014.2 0.0
26/05:00am 22.4 25.0 20.5 89 1.2 SE 7 11 4 6 1014.5 1014.1 0.0
26/04:30am 22.7 25.1 20.8 89 1.2 ESE 9 19 5 10 1014.4 1014.0 0.0
26/04:00am 22.6 25.7 21.1 91 1.0 ESE 6 9 3 5 1014.4 1014.0 0.0
26/03:30am 22.1 26.1 20.6 91 1.0 CALM 0 0 0 0 1014.4 1014.0 0.0
26/03:00am 21.7 25.5 20.2 91 1.0 CALM 0 0 0 0 1014.6 1014.2 0.0
26/02:30am 21.9 24.7 20.4 91 1.0 SSE 6 7 3 4 1014.7 1014.3 0.0
26/02:00am 22.4 25.3 21.0 92 0.9 ESE 7 13 4 7 1014.9 1014.5 0.0
26/01:30am 21.7 24.5 20.5 93 0.8 SE 6 9 3 5 1015.0 1014.6 0.0
26/01:00am 21.6 24.3 19.5 88 1.3 SE 4 6 2 3 1015.1 1014.7 0.0
26/12:30am 22.7 25.5 20.4 87 1.5 E 6 9 3 5 1015.2 1014.8 0.0
26/12:00am 23.1 25.8 20.2 84 1.9 E 6 7 3 4 1015.4 1015.0 0.0
 
Date/Time
CST
Temp
°C
App
Temp
°C
Dew
Point
°C
Rel
Hum
%
Delta-T
°C
Wind Press
QNH
hPa
Press
MSL
hPa
Rain since
9am
mm
Dir  Spd
km/h
Gust
km/h
Spd
kts
Gust
kts
25/11:30pm 23.7 26.5 20.4 82 2.1 SE 6 7 3 4 1015.7 1015.3 0.0
25/11:00pm 24.3 26.5 20.4 79 2.5 ESE 9 13 5 7 1015.7 1015.3 0.0
25/10:30pm 24.8 27.4 20.5 77 2.8 SE 7 11 4 6 1015.8 1015.4 0.0
25/10:00pm 25.5 27.7 20.5 74 3.3 ESE 9 13 5 7 1015.7 1015.3 0.0
25/09:30pm 26.1 28.2 20.2 70 3.9 E 9 17 5 9 1015.4 1015.0 0.0
25/09:00pm 26.7 28.8 20.1 67 4.3 E 9 15 5 8 1015.1 1014.7 0.0
25/08:30pm 27.2 28.4 20.0 64 4.7 E 13 24 7 13 1014.7 1014.3 0.0
25/08:00pm 28.0 29.6 19.2 58 5.7 ENE 9 15 5 8 1014.3 1013.9 0.0
25/07:30pm 27.4 29.9 18.1 57 5.9 ENE 2 7 1 4 1013.8 1013.4 0.0
25/07:00pm 29.3 30.6 17.5 49 7.5 ESE 7 11 4 6 1013.4 1013.0 0.0
25/06:53pm 33.8 38.9 24.7 59 6.4 ESE 6 11 3 6 1013.3 1012.9 0.0
25/06:30pm 27.2 29.0 18.2 58 5.7 SE 6 7 3 4 1013.1 1012.7 0.0
25/06:00pm 28.9 30.4 17.7 50 7.1 SE 6 9 3 5 1012.6 1012.2 0.0
25/05:30pm 30.1 31.0 17.5 46 8.0 SE 9 17 5 9 1012.5 1012.1 0.0
25/05:00pm 30.5 31.4 17.6 46 8.2 SE 9 11 5 6 1012.3 1011.9 0.0
25/04:30pm 30.9 31.1 17.6 45 8.5 E 13 20 7 11 1012.3 1011.9 0.0
25/04:00pm 31.8 32.4 17.7 43 9.1 E 11 20 6 11 1012.3 1011.9 0.0
25/03:30pm 31.4 31.3 16.9 41 9.2 E 13 19 7 10 1012.3 1011.9 0.0
25/03:00pm 32.4 33.9 18.9 44 8.8 E 9 20 5 11 1012.3 1011.9 0.0
25/02:30pm 31.3 31.6 17.9 44 8.6 ESE 13 24 7 13 1012.7 1012.3 0.0
25/02:00pm 32.2 31.7 17.7 42 9.3 ESE 17 28 9 15 1013.1 1012.7 0.0
25/01:30pm 31.8 30.9 17.7 43 9.1 E 19 28 10 15 1013.6 1013.2 0.0
25/01:00pm 32.4 32.6 18.6 44 9.0 ENE 15 26 8 14 1014.0 1013.6 0.0
25/12:30pm 31.1 30.2 17.8 45 8.5 E 19 26 10 14 1014.7 1014.3 0.0
25/12:00pm 30.6 29.7 17.7 46 8.3 NE 19 33 10 18 1015.2 1014.8 0.0
25/11:30am 30.2 29.8 18.0 48 7.8 E 17 28 9 15 1015.5 1015.1 0.0
25/11:00am 29.2 29.2 18.0 51 7.2 E 15 24 8 13 1015.8 1015.4 0.0
25/10:30am 28.4 29.1 17.9 53 6.7 E 11 22 6 12 1016.2 1015.8 0.0
25/10:00am 27.0 28.6 19.1 62 5.1 E 9 17 5 9 1016.6 1016.1 0.0
25/09:30am 25.4 27.6 19.1 68 4.0 NE 6 9 3 5 1016.5 1016.0 0.0
25/09:00am 23.7 25.2 18.8 74 3.1 SE 9 11 5 6 1016.5 1016.0 0.0
25/08:30am 22.4 24.1 18.4 78 2.5 SSE 7 13 4 7 1016.1 1015.7 0.0
25/08:00am 20.6 23.6 18.4 87 1.4 CALM 0 4 0 2 1015.8 1015.4 0.0
25/07:30am 17.0 18.9 15.7 92 0.8 CALM 0 6 0 3 1015.7 1015.3 0.0
25/07:00am 16.8 18.8 16.0 95 0.5 CALM 0 0 0 0 1015.4 1015.0 0.0
25/06:30am 16.4 18.2 15.4 94 0.6 CALM 0 0 0 0 1015.1 1014.7 0.0
25/06:00am 16.2 17.9 15.2 94 0.6 CALM 0 0 0 0 1014.7 1014.3 0.0
25/05:30am 15.7 17.0 14.1 90 0.9 CALM 0 2 0 1 1014.6 1014.2 0.0
25/05:00am 16.1 17.5 14.3 89 1.0 CALM 0 0 0 0 1014.5 1014.1 0.0
25/04:30am 16.5 18.0 14.7 89 1.0 CALM 0 0 0 0 1014.2 1013.8 0.0
25/04:00am 16.8 17.5 14.4 86 1.4 E 4 6 2 3 1014.0 1013.6 0.0
25/03:30am 17.0 17.3 14.5 85 1.4 S 6 7 3 4 1014.2 1013.8 0.0
25/03:00am 17.0 18.2 13.9 82 1.8 CALM 0 0 0 0 1014.4 1014.0 0.0
25/02:30am 17.4 18.6 13.9 80 2.0 CALM 0 0 0 0 1014.7 1014.3 0.0
25/02:00am 17.6 17.5 13.3 76 2.4 SW 6 7 3 4 1015.0 1014.6 0.0
25/01:30am 18.0 19.2 13.7 76 2.5 CALM 0 0 0 0 1015.5 1015.1 0.0
25/01:00am 18.3 19.2 13.0 71 3.0 CALM 0 0 0 0 1015.6 1015.2 0.0
25/12:30am 19.0 19.8 12.5 66 3.6 CALM 0 0 0 0 1015.7 1015.3 0.0
25/12:00am 19.6 18.9 11.9 61 4.3 SE 7 7 4 4 1015.8 1015.4 0.0
 
Date/Time
CST
Temp
°C
App
Temp
°C
Dew
Point
°C
Rel
Hum
%
Delta-T
°C
Wind Press
QNH
hPa
Press
MSL
hPa
Rain since
9am
mm
Dir  Spd
km/h
Gust
km/h
Spd
kts
Gust
kts
24/11:30pm 20.0 19.4 11.8 59 4.6 SE 6 9 3 5 1015.9 1015.5 0.0
24/11:00pm 20.9 20.2 12.1 57 5.0 SE 7 9 4 5 1015.8 1015.4 0.0
24/10:30pm 20.7 19.9 11.6 56 5.1 SSE 7 9 4 5 1015.8 1015.4 0.0
24/10:00pm 21.5 20.7 10.9 51 5.9 SE 6 7 3 4 1015.7 1015.3 0.0
24/09:30pm 23.5 22.4 10.6 44 7.2 SSE 7 11 4 6 1015.5 1015.1 0.0
24/09:00pm 22.4 21.5 11.5 50 6.1 SSE 7 9 4 5 1015.2 1014.8 0.0
24/08:30pm 22.5 21.9 12.2 52 5.8 ESE 7 9 4 5 1014.9 1014.5 0.0
24/08:00pm 22.8 23.1 12.1 51 6.1 ESE 2 6 1 3 1014.7 1014.3 0.0
24/07:30pm 23.9 23.4 12.2 48 6.7 ESE 6 11 3 6 1014.3 1013.9 0.0
24/07:00pm 24.6 23.9 11.5 44 7.4 NE 6 7 3 4 1013.8 1013.4 0.0
24/06:30pm 27.2 26.0 10.4 35 9.5 ESE 7 9 4 5 1013.4 1013.0 0.0
24/06:00pm 29.0 27.1 10.6 32 10.5 ESE 11 17 6 9 1013.0 1012.6 0.0
24/05:30pm 29.9 28.3 11.4 32 10.7 E 11 22 6 12 1012.6 1012.2 0.0
24/05:00pm 30.6 28.1 11.1 30 11.3 ESE 15 20 8 11 1012.1 1011.7 0.0
24/04:30pm 31.3 29.4 11.7 30 11.5 ESE 13 24 7 13 1012.1 1011.7 0.0
24/04:00pm 31.1 28.7 11.5 30 11.5 SE 15 24 8 13 1012.1 1011.7 0.0
24/03:30pm 31.9 30.4 14.1 34 10.9 SE 15 30 8 16 1012.1 1011.7 0.0
24/03:00pm 31.8 30.1 13.5 32 11.1 ESE 15 24 8 13 1012.2 1011.8 0.0
24/02:30pm 30.8 28.9 13.1 34 10.6 SE 15 26 8 14 1012.6 1012.2 0.0
24/02:00pm 31.1 28.9 13.4 34 10.7 ESE 17 24 9 13 1013.0 1012.6 0.0
24/01:30pm 31.3 29.3 14.0 35 10.5 ESE 17 26 9 14 1013.4 1013.0 0.0
24/01:00pm 31.2 29.5 13.5 34 10.7 ESE 15 26 8 14 1013.9 1013.5 0.0
24/12:30pm 30.4 27.9 12.3 33 10.7 ESE 17 28 9 15 1014.5 1014.1 0.0

Other Formats:

Comma delimited format used in spreadsheet applications
http://www.bom.gov.au/fwo/IDD60801/IDD60801.94143.axf

JavaScript Object Notation format (JSON) in row-major order
http://www.bom.gov.au/fwo/IDD60801/IDD60801.94143.json